Time;durP1;ratioP1;P1;durP2;ratioP2;P2;SDS_P1;SDS_P2;PMS_P1;PMS_P2;Temp;Humidity;BMP_temperature;BMP_pressure;BME280_temperature;BME280_humidity;BME280_pressure;Samples;Min_cycle;Max_cycle;Signal;HPM_P1;HPM_P2
2021/01/04 00:00:33;;;;;;;95.53;23.90;;;;;;;9.41;100.00;101787.41;5031352;28;20430;-66
2021/01/04 00:03:07;;;;;;;74.00;21.50;;;;;;;9.39;100.00;101785.78;5068845;28;20705;-66
2021/01/04 00:05:46;;;;;;;70.50;22.43;;;;;;;9.35;100.00;101779.81;5063266;28;20481;-65
2021/01/04 00:08:49;;;;;;;62.53;19.67;;;;;;;9.36;100.00;101780.66;5061979;28;20450;-65
2021/01/04 00:11:23;;;;;;;69.47;21.87;;;;;;;9.37;100.00;101784.97;5071137;28;20488;-65
2021/01/04 00:14:05;;;;;;;67.33;22.13;;;;;;;9.39;100.00;101786.63;5068573;28;20410;-65
2021/01/04 00:16:49;;;;;;;71.17;24.10;;;;;;;9.38;100.00;101784.06;5063611;28;20852;-70
2021/01/04 00:19:40;;;;;;;73.07;24.13;;;;;;;9.36;100.00;101778.03;5071757;28;20916;-71
2021/01/04 00:22:40;;;;;;;66.80;23.40;;;;;;;9.28;100.00;101773.13;5058626;28;20513;-70
2021/01/04 00:25:06;;;;;;;66.57;23.67;;;;;;;9.16;100.00;101776.31;5071626;28;20559;-71
2021/01/04 00:27:37;;;;;;;69.93;26.00;;;;;;;9.13;100.00;101771.19;5073116;28;20497;-71
2021/01/04 00:30:31;;;;;;;76.60;24.73;;;;;;;9.07;100.00;101767.09;5073192;28;20304;-70
2021/01/04 00:33:02;;;;;;;72.37;26.07;;;;;;;9.05;100.00;101775.91;5069637;28;20418;-71
2021/01/04 00:35:29;;;;;;;78.03;29.37;;;;;;;9.07;100.00;101779.34;5072779;28;20398;-70
2021/01/04 00:38:16;;;;;;;83.47;31.60;;;;;;;9.13;100.00;101777.28;5059499;28;20468;-71
2021/01/04 00:41:14;;;;;;;83.53;30.83;;;;;;;9.20;100.00;101784.88;5072224;28;20409;-68
2021/01/04 00:43:44;;;;;;;90.50;33.20;;;;;;;9.21;100.00;101789.19;5067621;28;20826;-69
2021/01/04 00:46:11;;;;;;;80.43;32.30;;;;;;;9.22;100.00;101780.41;5054296;28;20407;-69
2021/01/04 00:48:51;;;;;;;71.93;32.43;;;;;;;9.22;100.00;101777.78;5071590;28;20411;-67
2021/01/04 00:51:36;;;;;;;72.07;30.17;;;;;;;9.07;100.00;101777.56;5070607;28;21036;-66
2021/01/04 00:54:17;;;;;;;79.70;31.00;;;;;;;8.98;100.00;101779.72;5059092;28;20423;-68
2021/01/04 00:57:11;;;;;;;70.80;28.37;;;;;;;8.92;100.00;101777.34;5060794;28;20434;-67
2021/01/04 00:59:55;;;;;;;73.00;29.50;;;;;;;8.86;100.00;101770.63;5068226;28;20426;-68
2021/01/04 01:03:03;;;;;;;77.17;26.10;;;;;;;8.78;100.00;101775.34;5067698;28;20429;-68
2021/01/04 01:05:52;;;;;;;71.73;25.80;;;;;;;8.69;100.00;101773.09;5069815;28;20476;-67
2021/01/04 01:08:25;;;;;;;69.23;27.63;;;;;;;8.70;100.00;101774.81;5071850;28;20399;-70
2021/01/04 01:10:51;;;;;;;72.13;26.03;;;;;;;8.59;100.00;101773.50;5059669;28;20498;-66
2021/01/04 01:13:33;;;;;;;60.03;22.23;;;;;;;8.52;100.00;101777.28;5070808;28;20419;-69
2021/01/04 01:16:07;;;;;;;63.30;24.63;;;;;;;8.47;100.00;101778.41;5058401;28;20172;-67
2021/01/04 01:18:36;;;;;;;59.10;20.53;;;;;;;8.41;100.00;101779.50;5071509;28;20420;-67
2021/01/04 01:21:06;;;;;;;62.67;23.47;;;;;;;8.41;100.00;101783.91;5071844;28;20438;-66
2021/01/04 01:23:31;;;;;;;62.30;23.23;;;;;;;8.41;100.00;101783.91;5070316;28;21002;-70
2021/01/04 01:26:12;;;;;;;69.20;24.27;;;;;;;8.36;100.00;101781.44;5071745;28;20446;-67
2021/01/04 01:29:06;;;;;;;70.43;24.97;;;;;;;8.37;100.00;101779.69;5069157;28;20200;-69
2021/01/04 01:32:12;;;;;;;57.37;21.90;;;;;;;8.40;100.00;101775.19;5036418;28;20770;-70
2021/01/04 01:35:18;;;;;;;77.53;24.67;;;;;;;8.47;100.00;101774.03;5058687;28;20417;-71
2021/01/04 01:38:25;;;;;;;67.17;23.17;;;;;;;8.50;100.00;101762.56;5065226;28;20777;-72
2021/01/04 01:41:00;;;;;;;74.10;23.07;;;;;;;8.52;100.00;101756.31;5060349;28;20443;-67
2021/01/04 01:43:42;;;;;;;72.53;23.07;;;;;;;8.51;100.00;101759.88;5063208;28;20454;-70
2021/01/04 01:46:13;;;;;;;71.60;23.30;;;;;;;8.49;100.00;101751.22;5068837;28;20423;-69
2021/01/04 01:49:06;;;;;;;67.00;22.83;;;;;;;8.44;100.00;101742.69;5070461;28;20415;-68
2021/01/04 01:51:37;;;;;;;68.83;26.40;;;;;;;8.42;100.00;101741.94;5053483;28;20429;-72
2021/01/04 01:54:19;;;;;;;65.67;24.27;;;;;;;8.35;100.00;101732.63;5062694;28;20446;-69
2021/01/04 01:57:09;;;;;;;62.80;22.47;;;;;;;8.31;100.00;101731.00;5062898;28;20422;-72
2021/01/04 01:59:50;;;;;;;64.30;22.17;;;;;;;8.26;100.00;101722.50;5068940;28;20891;-71
2021/01/04 02:02:32;;;;;;;75.27;23.73;;;;;;;8.23;100.00;101727.84;5062387;28;21179;-65
2021/01/04 02:05:13;;;;;;;75.27;24.73;;;;;;;8.27;100.00;101730.28;5044559;28;20488;-71
2021/01/04 02:07:54;;;;;;;125.67;25.87;;;;;;;8.21;100.00;101725.28;5063293;28;20430;-71
2021/01/04 02:10:46;;;;;;;85.33;23.40;;;;;;;8.21;100.00;101729.69;5069662;28;20894;-71
2021/01/04 02:13:28;;;;;;;75.20;24.93;;;;;;;8.27;100.00;101729.44;5063870;28;20426;-72
2021/01/04 02:16:05;;;;;;;72.30;23.30;;;;;;;8.27;100.00;101729.44;5068535;28;20411;-71
2021/01/04 02:18:45;;;;;;;71.97;25.17;;;;;;;8.28;100.00;101724.13;5069464;28;20415;-70
2021/01/04 02:21:46;;;;;;;68.07;24.43;;;;;;;8.40;100.00;101733.28;5058112;28;20846;-68
2021/01/04 02:24:14;;;;;;;79.20;26.77;;;;;;;8.51;100.00;101731.06;5040966;28;20488;-69
2021/01/04 02:26:48;;;;;;;83.27;26.57;;;;;;;8.60;100.00;101725.41;5067979;28;20442;-71
2021/01/04 02:29:17;;;;;;;89.97;27.13;;;;;;;8.66;100.00;101726.09;5069645;28;20803;-72
2021/01/04 02:31:47;;;;;;;87.80;25.17;;;;;;;8.75;100.00;101723.06;5058107;28;20469;-72
2021/01/04 02:34:15;;;;;;;64.90;24.10;;;;;;;8.81;100.00;101722.81;5065837;28;20447;-72
2021/01/04 02:36:51;;;;;;;70.80;23.83;;;;;;;8.84;100.00;101717.41;5068345;28;20433;-72
2021/01/04 02:39:26;;;;;;;68.77;24.57;;;;;;;8.86;100.00;101712.97;5066971;28;20422;-73
2021/01/04 02:41:57;;;;;;;70.10;23.00;;;;;;;8.80;100.00;101715.88;5068780;28;20460;-71
2021/01/04 02:44:25;;;;;;;65.60;21.90;;;;;;;8.84;100.00;101717.41;5058468;28;20419;-72
2021/01/04 02:47:09;;;;;;;59.93;21.20;;;;;;;8.78;100.00;101712.47;5070117;28;20479;-70
2021/01/04 02:49:52;;;;;;;64.80;22.37;;;;;;;8.80;100.00;101702.75;5065302;28;20457;-72
2021/01/04 02:52:46;;;;;;;65.13;22.10;;;;;;;8.69;100.00;101711.09;5067617;28;20410;-70
2021/01/04 02:55:22;;;;;;;80.20;24.47;;;;;;;8.60;100.00;101716.72;5034824;28;20426;-70
2021/01/04 02:58:17;;;;;;;73.70;25.70;;;;;;;8.50;100.00;101716.25;5058716;28;20429;-69
2021/01/04 03:00:50;;;;;;;67.00;23.70;;;;;;;8.46;100.00;101706.81;5063269;28;20430;-70
2021/01/04 03:03:18;;;;;;;69.83;22.23;;;;;;;8.37;100.00;101704.59;5058119;28;20433;-66
2021/01/04 03:05:44;;;;;;;67.63;21.93;;;;;;;8.36;100.00;101705.50;5051830;28;20426;-66
2021/01/04 03:08:09;;;;;;;63.87;21.20;;;;;;;8.39;100.00;101708.03;5069540;28;20406;-69
2021/01/04 03:10:40;;;;;;;66.17;20.53;;;;;;;8.37;100.00;101698.50;5043983;28;20895;-71
2021/01/04 03:13:09;;;;;;;66.17;22.13;;;;;;;8.39;100.00;101701.91;5047311;28;20164;-69
2021/01/04 03:16:06;;;;;;;63.40;23.17;;;;;;;8.32;100.00;101702.16;5042442;28;20422;-73
2021/01/04 03:18:41;;;;;;;67.70;21.20;;;;;;;8.34;100.00;101694.22;5045729;28;20455;-72
2021/01/04 03:21:08;;;;;;;70.47;21.83;;;;;;;8.32;100.00;101690.84;5059543;28;20418;-72
2021/01/04 03:23:34;;;;;;;78.57;23.53;;;;;;;8.31;100.00;101696.97;5063359;28;20534;-71
2021/01/04 03:26:12;;;;;;;63.63;21.87;;;;;;;8.30;100.00;101700.50;5040164;28;20498;-73
2021/01/04 03:28:38;;;;;;;81.40;22.70;;;;;;;8.30;100.00;101697.88;5066273;28;20434;-71
2021/01/04 03:31:08;;;;;;;78.17;25.40;;;;;;;8.37;100.00;101704.59;5068578;28;20825;-71
2021/01/04 03:33:34;;;;;;;68.07;23.20;;;;;;;8.36;100.00;101708.13;5058451;28;20717;-69
2021/01/04 03:36:01;;;;;;;73.27;24.03;;;;;;;8.40;100.00;101701.00;5049907;28;20411;-70
2021/01/04 03:38:27;;;;;;;72.13;24.80;;;;;;;8.35;100.00;101698.56;5068045;28;20171;-72
2021/01/04 03:40:52;;;;;;;67.57;22.73;;;;;;;8.34;100.00;101695.06;5067727;28;20442;-71
2021/01/04 03:43:18;;;;;;;83.23;25.97;;;;;;;8.41;100.00;101684.38;5067803;28;20177;-69
2021/01/04 03:45:44;;;;;;;80.13;25.73;;;;;;;8.42;100.00;101684.31;5070307;28;20160;-72
2021/01/04 03:48:11;;;;;;;75.17;27.13;;;;;;;8.47;100.00;101684.97;5067738;28;20426;-72
2021/01/04 03:50:37;;;;;;;118.27;28.10;;;;;;;8.55;100.00;101688.13;5069989;28;20219;-71
2021/01/04 03:53:04;;;;;;;206.33;28.97;;;;;;;8.61;100.00;101680.00;5063721;28;20518;-73
2021/01/04 03:55:29;;;;;;;177.37;32.37;;;;;;;8.68;100.00;101693.66;5068721;28;20783;-72
2021/01/04 03:57:55;;;;;;;192.30;34.10;;;;;;;8.82;100.00;101690.44;5058184;28;20438;-71
2021/01/04 04:00:21;;;;;;;172.20;28.80;;;;;;;8.88;100.00;101688.41;5068752;28;20164;-72
2021/01/04 04:02:48;;;;;;;151.33;31.90;;;;;;;8.91;100.00;101692.66;5068598;28;20168;-72
2021/01/04 04:05:16;;;;;;;163.20;29.70;;;;;;;8.95;100.00;101683.75;5053582;28;20456;-71
2021/01/04 04:07:43;;;;;;;150.67;30.90;;;;;;;8.94;100.00;101682.03;5072494;28;20406;-70
2021/01/04 04:10:11;;;;;;;218.63;30.93;;;;;;;8.92;100.00;101683.00;5072974;28;20442;-71
2021/01/04 04:12:37;;;;;;;263.77;35.67;;;;;;;8.89;100.00;101684.00;5069211;28;20423;-69
2021/01/04 04:15:09;;;;;;;112.10;28.70;;;;;;;8.90;100.00;101689.19;5062653;28;20429;-71
2021/01/04 04:17:35;;;;;;;184.10;31.40;;;;;;;8.98;100.00;101690.59;5071883;28;20450;-69
2021/01/04 04:20:00;;;;;;;197.90;32.43;;;;;;;8.95;100.00;101702.09;5070757;28;20580;-66
2021/01/04 04:22:26;;;;;;;143.00;31.07;;;;;;;8.98;100.00;101691.44;5062599;28;20590;-67
2021/01/04 04:24:51;;;;;;;231.57;37.23;;;;;;;9.00;100.00;101689.63;5071839;28;20179;-67
2021/01/04 04:27:18;;;;;;;136.80;33.10;;;;;;;9.03;100.00;101693.88;5050603;28;20205;-72
2021/01/04 04:29:45;;;;;;;140.93;31.07;;;;;;;9.07;100.00;101691.06;5047692;28;20790;-72
2021/01/04 04:32:11;;;;;;;160.23;33.40;;;;;;;9.06;100.00;101683.25;5042642;28;20428;-73
2021/01/04 04:34:38;;;;;;;116.30;31.17;;;;;;;9.07;100.00;101680.59;5047148;28;20435;-70
2021/01/04 04:37:05;;;;;;;158.10;36.47;;;;;;;9.03;100.00;101692.13;5051400;28;20514;-72
2021/01/04 04:39:31;;;;;;;111.03;35.90;;;;;;;9.06;100.00;101686.72;5041072;28;20974;-72
2021/01/04 04:41:57;;;;;;;131.13;37.17;;;;;;;9.07;100.00;101682.34;5048188;28;20419;-73
2021/01/04 04:44:22;;;;;;;126.13;34.90;;;;;;;9.09;100.00;101688.38;5052079;28;20180;-71
2021/01/04 04:46:55;;;;;;;115.67;33.97;;;;;;;9.13;100.00;101687.28;5049748;28;20291;-74
2021/01/04 04:49:45;;;;;;;125.83;35.10;;;;;;;9.14;100.00;101679.38;5045599;28;20177;-69
2021/01/04 04:52:29;;;;;;;110.10;33.63;;;;;;;9.13;100.00;101671.56;5037843;28;20874;-70
2021/01/04 04:55:15;;;;;;;102.03;31.10;;;;;;;9.15;100.00;101670.59;5050852;28;20419;-70
2021/01/04 04:57:48;;;;;;;106.40;32.27;;;;;;;9.12;100.00;101675.09;5040614;28;20496;-71
2021/01/04 05:00:29;;;;;;;113.23;36.90;;;;;;;9.09;100.00;101675.25;5043388;28;20429;-69
2021/01/04 05:03:39;;;;;;;122.33;31.80;;;;;;;8.97;100.00;101684.50;5047498;28;20419;-73
2021/01/04 05:06:27;;;;;;;185.80;31.30;;;;;;;9.04;100.00;101693.81;5029945;28;20415;-70
2021/01/04 05:09:20;;;;;;;141.43;26.67;;;;;;;9.02;100.00;101695.66;5045335;28;20461;-69
2021/01/04 05:12:00;;;;;;;210.70;26.60;;;;;;;9.12;100.00;101693.47;5050195;28;20478;-70
2021/01/04 05:14:28;;;;;;;160.67;28.00;;;;;;;9.07;100.00;101675.34;5049417;28;20444;-69
2021/01/04 05:17:31;;;;;;;134.77;25.27;;;;;;;9.09;100.00;101678.72;5040467;28;20482;-73
2021/01/04 05:20:12;;;;;;;132.63;25.33;;;;;;;9.13;100.00;101672.41;4989578;28;20911;-71
2021/01/04 05:23:05;;;;;;;114.77;25.73;;;;;;;9.15;100.00;101678.47;4988743;28;20571;-71
2021/01/04 05:26:04;;;;;;;239.23;29.23;;;;;;;9.23;100.00;101682.50;5036667;28;20458;-67
2021/01/04 05:28:45;;;;;;;127.60;28.33;;;;;;;9.28;100.00;101688.38;5067119;28;20469;-72
2021/01/04 05:32:05;;;;;;;136.90;29.90;;;;;;;9.24;100.00;101685.03;5065278;28;20454;-73
2021/01/04 05:34:39;;;;;;;191.57;35.83;;;;;;;9.26;100.00;101687.59;5024093;28;20446;-72
2021/01/04 05:37:29;;;;;;;169.80;32.77;;;;;;;9.29;100.00;101682.19;5059752;28;20399;-72
2021/01/04 05:40:17;;;;;;;145.00;31.40;;;;;;;9.35;100.00;101687.16;5051214;28;21016;-67
2021/01/04 05:43:13;;;;;;;161.63;35.93;;;;;;;9.34;100.00;101691.56;5059197;28;20485;-72
2021/01/04 05:45:59;;;;;;;181.93;33.50;;;;;;;9.36;100.00;101697.56;5070210;28;20511;-72
2021/01/04 05:48:46;;;;;;;122.83;35.70;;;;;;;9.34;100.00;101702.06;5069016;28;20503;-70
2021/01/04 05:51:30;;;;;;;112.90;32.33;;;;;;;9.37;100.00;101695.81;5058712;28;20519;-71
2021/01/04 05:53:55;;;;;;;126.17;37.90;;;;;;;9.32;100.00;101698.66;5070249;28;20410;-71
2021/01/04 05:56:24;;;;;;;120.23;39.83;;;;;;;9.33;100.00;101702.97;5069144;28;20433;-71
2021/01/04 05:59:07;;;;;;;133.20;37.77;;;;;;;9.31;100.00;101704.81;5063912;28;20181;-71
2021/01/04 06:01:33;;;;;;;123.53;38.80;;;;;;;9.36;100.00;101715.94;5062627;28;20438;-72
2021/01/04 06:04:07;;;;;;;181.30;35.57;;;;;;;9.29;100.00;101711.88;5069445;28;20422;-70
2021/01/04 06:06:41;;;;;;;212.43;32.03;;;;;;;9.17;100.00;101718.56;5070694;28;20818;-71
2021/01/04 06:09:13;;;;;;;202.80;33.47;;;;;;;9.01;100.00;101714.94;5067917;28;20417;-71
2021/01/04 06:11:55;;;;;;;107.87;32.63;;;;;;;9.05;100.00;101718.25;5070493;28;20425;-72
2021/01/04 06:14:24;;;;;;;88.60;34.53;;;;;;;9.04;100.00;101711.31;5067769;28;20422;-72
2021/01/04 06:17:07;;;;;;;99.17;36.70;;;;;;;9.05;100.00;101711.22;5065858;28;20418;-72
2021/01/04 06:19:36;;;;;;;103.37;41.50;;;;;;;9.09;100.00;101701.47;5058103;28;20935;-72
2021/01/04 06:22:29;;;;;;;97.33;38.87;;;;;;;9.13;100.00;101705.66;5068241;28;20473;-71
2021/01/04 06:25:01;;;;;;;126.13;36.00;;;;;;;9.17;100.00;101707.22;5051902;28;20959;-74
2021/01/04 06:27:31;;;;;;;102.50;35.60;;;;;;;9.24;100.00;101715.66;5044242;28;20438;-72
2021/01/04 06:30:12;;;;;;;116.80;35.77;;;;;;;9.33;100.00;101708.22;5069584;28;20446;-66
2021/01/04 06:32:38;;;;;;;92.40;30.80;;;;;;;9.37;100.00;101701.94;5067984;28;20426;-73
2021/01/04 06:35:24;;;;;;;101.60;35.50;;;;;;;9.42;100.00;101702.53;5061716;28;20421;-72
2021/01/04 06:37:50;;;;;;;106.43;38.40;;;;;;;9.38;100.00;101700.16;5065440;28;20427;-71
2021/01/04 06:40:33;;;;;;;105.53;33.50;;;;;;;9.44;100.00;101710.34;5069568;28;20426;-73
2021/01/04 06:43:16;;;;;;;121.67;37.03;;;;;;;9.39;100.00;101709.72;5068259;28;20430;-73
2021/01/04 06:45:55;;;;;;;98.53;35.63;;;;;;;9.51;100.00;101710.91;5069141;28;20873;-73
2021/01/04 06:48:48;;;;;;;81.93;34.03;;;;;;;9.58;100.00;101702.69;5064299;28;20411;-73
2021/01/04 06:51:16;;;;;;;85.03;32.23;;;;;;;9.73;100.00;101712.44;5059368;28;20860;-74
2021/01/04 06:54:01;;;;;;;94.83;33.17;;;;;;;9.76;100.00;101710.63;5050828;28;20545;-73
2021/01/04 06:56:39;;;;;;;78.40;27.87;;;;;;;9.84;100.00;101717.19;5051183;28;20446;-74
2021/01/04 06:59:20;;;;;;;65.43;26.20;;;;;;;9.95;100.00;101714.03;5060951;28;20414;-71
2021/01/04 07:02:20;;;;;;;84.87;26.83;;;;;;;9.85;100.00;101715.44;5070082;28;20402;-73
2021/01/04 07:05:16;;;;;;;97.37;25.37;;;;;;;9.95;100.00;101706.16;5064064;28;20433;-71
2021/01/04 07:08:17;;;;;;;65.00;24.13;;;;;;;10.00;100.00;101704.19;5066987;28;20411;-72
2021/01/04 07:11:00;;;;;;;68.30;25.93;;;;;;;9.80;100.00;101702.50;5064269;28;20446;-74
2021/01/04 07:13:57;;;;;;;65.37;29.10;;;;;;;9.93;100.00;101693.13;5044294;28;20435;-74
2021/01/04 07:16:57;;;;;;;115.13;27.60;;;;;;;9.86;100.00;101693.50;5060526;28;20422;-74
2021/01/04 07:19:44;;;;;;;64.10;33.47;;;;;;;9.99;100.00;101678.84;5069267;28;20843;-72
2021/01/04 07:22:30;;;;;;;63.57;35.93;;;;;;;9.92;100.00;101664.34;5070414;28;20418;-72
2021/01/04 07:25:10;;;;;;;60.50;42.63;;;;;;;9.84;100.00;101666.47;5060881;28;20480;-69
2021/01/04 07:27:56;;;;;;;89.77;45.97;;;;;;;9.73;100.00;101665.22;5072606;28;20936;-68
2021/01/04 07:30:40;;;;;;;80.23;46.20;;;;;;;9.70;100.00;101660.13;5070793;28;20472;-72
2021/01/04 07:33:23;;;;;;;72.30;48.70;;;;;;;9.72;100.00;101668.75;5067001;28;20899;-73
2021/01/04 07:36:22;;;;;;;83.03;44.40;;;;;;;9.60;100.00;101686.88;5066034;28;20509;-72
2021/01/04 07:39:22;;;;;;;75.87;44.53;;;;;;;9.69;100.00;101678.56;5072883;28;20418;-68
2021/01/04 07:41:53;;;;;;;84.53;48.33;;;;;;;9.89;100.00;101683.69;5070282;28;20418;-72
2021/01/04 07:45:03;;;;;;;70.27;47.10;;;;;;;10.02;100.00;101679.53;5073395;28;20386;-72
2021/01/04 07:47:52;;;;;;;74.40;50.10;;;;;;;10.25;100.00;101669.69;5059163;28;20471;-69
2021/01/04 07:51:03;;;;;;;82.70;67.83;;;;;;;10.27;100.00;101665.22;5068053;28;20450;-71
2021/01/04 07:53:43;;;;;;;82.50;70.73;;;;;;;10.10;100.00;101654.69;5071203;28;20463;-70
2021/01/04 07:56:34;;;;;;;83.73;66.10;;;;;;;10.03;100.00;101651.50;5072572;28;20407;-71
2021/01/04 07:59:03;;;;;;;87.97;69.17;;;;;;;10.09;100.00;101656.47;5068871;28;20418;-71
2021/01/04 08:01:52;;;;;;;84.30;60.73;;;;;;;9.98;100.00;101653.53;5062641;28;20850;-72
2021/01/04 08:04:45;;;;;;;101.83;65.53;;;;;;;9.80;100.00;101655.28;5066885;28;20418;-68
2021/01/04 08:07:25;;;;;;;68.57;49.77;;;;;;;9.83;100.00;101670.03;5068649;28;20479;-71
2021/01/04 08:10:14;;;;;;;112.37;47.70;;;;;;;10.02;100.00;101673.44;5054507;28;20453;-71
2021/01/04 08:13:07;;;;;;;79.57;44.80;;;;;;;10.20;100.00;101671.66;5072921;28;20901;-65
2021/01/04 08:15:33;;;;;;;67.13;40.33;;;;;;;10.36;100.00;101656.88;5072690;28;20399;-70
2021/01/04 08:18:13;;;;;;;58.97;43.63;;;;;;;10.43;100.00;101660.91;5072018;28;20430;-71
2021/01/04 08:20:56;;;;;;;65.90;48.97;;;;;;;10.56;100.00;101661.94;5071079;28;20573;-71
2021/01/04 08:23:54;;;;;;;72.77;50.13;;;;;;;10.87;100.00;101660.34;5070604;28;20972;-69
2021/01/04 08:26:45;;;;;;;74.67;64.67;;;;;;;11.07;100.00;101662.75;5065881;28;20454;-69
2021/01/04 08:29:35;;;;;;;91.70;82.63;;;;;;;11.27;100.00;101656.44;5066229;28;20431;-70
2021/01/04 08:32:20;;;;;;;85.97;77.80;;;;;;;11.43;100.00;101642.41;5064043;28;20643;-70
2021/01/04 08:34:48;;;;;;;81.73;74.07;;;;;;;11.66;100.00;101645.44;5062322;28;20426;-68
2021/01/04 08:37:19;;;;;;;106.43;97.03;;;;;;;11.67;100.00;101646.31;5066932;28;20916;-73
2021/01/04 08:39:51;;;;;;;79.67;71.43;;;;;;;11.91;100.00;101650.19;5071853;28;20464;-73
2021/01/04 08:42:22;;;;;;;72.97;64.03;;;;;;;12.07;100.00;101644.03;5048983;28;20434;-72
2021/01/04 08:45:06;;;;;;;67.37;59.73;;;;;;;12.04;100.00;101637.16;5060166;28;20480;-73
2021/01/04 08:47:35;;;;;;;71.27;60.57;;;;;;;12.15;100.00;101625.97;5066801;28;20406;-72
2021/01/04 08:50:10;;;;;;;74.93;62.87;;;;;;;12.15;100.00;101618.09;5054237;28;20443;-68
2021/01/04 08:52:42;;;;;;;71.03;51.23;;;;;;;12.18;100.00;101621.41;5063757;28;20571;-71
2021/01/04 08:55:08;;;;;;;68.77;45.77;;;;;;;12.20;100.00;101626.56;5060742;28;20427;-72
2021/01/04 08:57:41;;;;;;;66.73;43.73;;;;;;;12.14;100.00;101635.69;5070931;28;20414;-66
2021/01/04 09:00:37;;;;;;;62.23;31.13;;;;;;;12.20;100.00;101639.75;5051171;28;20473;-68
2021/01/04 09:03:02;;;;;;;62.13;34.87;;;;;;;12.33;100.00;101630.19;5033713;28;20430;-67
2021/01/04 09:05:38;;;;;;;62.47;29.53;;;;;;;12.35;100.00;101620.38;5068602;28;20471;-68
2021/01/04 09:08:06;;;;;;;60.13;26.40;;;;;;;12.47;100.00;101632.84;5065180;28;20210;-69
2021/01/04 09:10:43;;;;;;;56.70;27.70;;;;;;;12.56;100.00;101626.16;5067823;28;20501;-69
2021/01/04 09:13:10;;;;;;;64.90;24.73;;;;;;;12.72;100.00;101616.38;5063910;28;20398;-69
2021/01/04 09:15:37;;;;;;;59.80;26.10;;;;;;;12.82;100.00;101611.34;5065998;28;20764;-69
2021/01/04 09:18:03;;;;;;;59.87;30.67;;;;;;;12.81;100.00;101609.66;5070150;28;20461;-69
2021/01/04 09:20:43;;;;;;;63.60;34.47;;;;;;;12.96;100.00;101608.72;5070125;28;20450;-68
2021/01/04 09:23:21;;;;;;;67.97;34.87;;;;;;;12.86;100.00;101617.31;5070921;28;20184;-70
2021/01/04 09:26:02;;;;;;;73.13;38.43;;;;;;;13.29;100.00;101612.81;5070323;28;20841;-67
2021/01/04 09:28:37;;;;;;;64.83;28.20;;;;;;;13.61;100.00;101605.47;5062683;28;20811;-67
2021/01/04 09:31:03;;;;;;;69.53;29.40;;;;;;;14.00;100.00;101596.69;5070444;28;20808;-69
2021/01/04 09:33:29;;;;;;;66.73;25.43;;;;;;;14.42;100.00;101592.06;5063079;28;20946;-67
2021/01/04 09:36:05;;;;;;;59.27;25.10;;;;;;;15.29;100.00;101577.94;5070606;28;20411;-68
2021/01/04 09:38:31;;;;;;;62.87;28.20;;;;;;;15.95;100.00;101567.78;5063155;28;20160;-67
2021/01/04 09:40:59;;;;;;;62.67;24.53;;;;;;;16.37;100.00;101564.44;5069247;28;20406;-68
2021/01/04 09:43:31;;;;;;;60.40;25.37;;;;;;;16.38;100.00;101557.31;5069191;28;20171;-69
2021/01/04 09:46:15;;;;;;;67.53;30.73;;;;;;;16.15;100.00;101561.75;5060815;28;20777;-69
2021/01/04 09:49:12;;;;;;;66.10;44.30;;;;;;;16.52;100.00;101554.44;5070643;28;20471;-69
2021/01/04 09:51:48;;;;;;;72.20;54.27;;;;;;;16.78;100.00;101559.53;5065450;28;20436;-69
2021/01/04 09:54:28;;;;;;;74.80;52.70;;;;;;;16.90;100.00;101553.22;5064687;28;20445;-67
2021/01/04 09:57:00;;;;;;;77.40;41.57;;;;;;;16.69;100.00;101554.91;5055946;28;20473;-71
2021/01/04 09:59:26;;;;;;;74.70;36.50;;;;;;;17.29;100.00;101549.16;5069617;28;20401;-65
2021/01/04 10:02:00;;;;;;;73.80;42.10;;;;;;;17.40;100.00;101551.78;5063361;28;20416;-69
2021/01/04 10:04:33;;;;;;;71.40;43.37;;;;;;;17.68;100.00;101541.50;5057502;28;20415;-69
2021/01/04 10:07:05;;;;;;;78.37;43.87;;;;;;;18.14;100.00;101533.16;5058815;28;20406;-67
2021/01/04 10:09:35;;;;;;;77.30;48.37;;;;;;;17.95;100.00;101525.06;5050302;28;20487;-70
2021/01/04 10:12:07;;;;;;;77.30;42.60;;;;;;;18.15;100.00;101518.06;5055149;28;20502;-70
2021/01/04 10:14:33;;;;;;;71.87;37.73;;;;;;;17.73;100.00;101513.59;5051164;28;20460;-69
2021/01/04 10:17:01;;;;;;;77.77;34.60;;;;;;;17.70;100.00;101500.56;5060406;28;20434;-68
2021/01/04 10:19:36;;;;;;;74.30;33.17;;;;;;;17.24;100.00;101503.53;5063273;28;20935;-70
2021/01/04 10:22:13;;;;;;;70.27;30.93;;;;;;;17.63;100.00;101499.38;5062463;28;20438;-71
2021/01/04 10:24:55;;;;;;;70.43;31.10;;;;;;;18.13;100.00;101491.56;5061020;28;20475;-67
2021/01/04 10:27:23;;;;;;;73.73;42.07;;;;;;;18.29;100.00;101491.09;5049666;28;20431;-70
2021/01/04 10:29:52;;;;;;;81.00;37.60;;;;;;;17.89;100.00;101499.84;5060524;28;20495;-66
2021/01/04 10:32:24;;;;;;;75.57;36.47;;;;;;;17.69;100.00;101495.34;5057924;28;20756;-67
2021/01/04 10:34:52;;;;;;;75.07;36.57;;;;;;;18.08;100.00;101493.78;5061154;28;20455;-69
2021/01/04 10:37:20;;;;;;;83.30;44.23;;;;;;;18.86;100.00;101481.59;5061316;28;20423;-70
2021/01/04 10:39:46;;;;;;;74.50;41.67;;;;;;;19.49;100.00;101466.03;5058085;28;20498;-71
2021/01/04 10:42:21;;;;;;;74.53;44.77;;;;;;;19.82;100.00;101462.09;5064582;28;20402;-70
2021/01/04 10:44:49;;;;;;;75.90;44.33;;;;;;;19.74;100.00;101461.13;5059737;28;20406;-69
2021/01/04 10:47:24;;;;;;;74.33;44.90;;;;;;;18.74;100.00;101469.38;5059819;28;20494;-69
2021/01/04 10:49:50;;;;;;;70.53;28.90;;;;;;;17.97;100.00;101467.25;5058600;28;20544;-66
2021/01/04 10:52:22;;;;;;;78.73;29.57;;;;;;;17.58;100.00;101471.50;5067373;28;20482;-67
2021/01/04 10:54:48;;;;;;;83.93;29.23;;;;;;;17.41;100.00;101473.75;5062847;28;20179;-67
2021/01/04 10:57:34;;;;;;;74.43;28.97;;;;;;;17.25;100.00;101467.19;5041079;28;21135;-66
2021/01/04 11:00:08;;;;;;;77.20;28.50;;;;;;;16.75;100.00;101475.69;5063790;28;20427;-66
2021/01/04 11:02:39;;;;;;;78.40;31.33;;;;;;;16.60;100.00;101475.06;5057839;28;20409;-67
2021/01/04 11:05:08;;;;;;;78.00;30.30;;;;;;;16.56;100.00;101462.19;5066431;28;20947;-72
2021/01/04 11:07:34;;;;;;;78.73;32.60;;;;;;;16.72;100.00;101464.47;5076370;28;20402;-65
2021/01/04 11:10:18;;;;;;;72.23;26.70;;;;;;;17.32;100.00;101468.38;5062306;28;20438;-66
2021/01/04 11:12:49;;;;;;;68.30;26.03;;;;;;;17.98;100.00;101451.16;5062824;28;20164;-67
2021/01/04 11:15:34;;;;;;;77.57;27.40;;;;;;;19.37;100.00;101435.19;5056661;28;20565;-67
2021/01/04 11:18:05;;;;;;;76.33;29.07;;;;;;;19.32;100.00;101422.28;5060692;28;20442;-68
2021/01/04 11:20:31;;;;;;;87.77;30.60;;;;;;;20.14;100.00;101410.16;5062117;28;20415;-67
2021/01/04 11:23:05;;;;;;;81.27;28.63;;;;;;;20.28;100.00;101406.13;5060075;28;20434;-66
2021/01/04 11:25:31;;;;;;;78.77;28.87;;;;;;;20.30;100.00;101409.50;5061884;28;20679;-68
2021/01/04 11:27:57;;;;;;;78.13;27.27;;;;;;;20.50;100.00;101411.09;5064107;28;20424;-66
2021/01/04 11:30:23;;;;;;;77.07;28.30;;;;;;;20.27;100.00;101399.13;5065240;28;20446;-66
2021/01/04 11:32:49;;;;;;;77.73;27.37;;;;;;;20.36;100.00;101403.56;5055796;28;20497;-69
2021/01/04 11:35:14;;;;;;;83.17;28.20;;;;;;;20.55;100.00;101394.59;5058823;28;20802;-64
2021/01/04 11:37:40;;;;;;;74.33;27.07;;;;;;;20.62;100.00;101388.50;5059738;28;20180;-67
2021/01/04 11:40:06;;;;;;;77.40;27.13;;;;;;;20.82;100.00;101378.53;5061669;28;20164;-66
2021/01/04 11:42:32;;;;;;;81.60;27.30;;;;;;;21.00;100.00;101381.16;5058709;28;20587;-68
2021/01/04 11:44:58;;;;;;;78.80;25.70;;;;;;;20.33;100.00;101382.50;5058122;28;20465;-68
2021/01/04 11:47:23;;;;;;;89.03;28.50;;;;;;;19.55;100.00;101387.31;5054696;28;20637;-68
2021/01/04 11:49:49;;;;;;;80.60;27.10;;;;;;;19.18;100.00;101389.91;5057806;28;20235;-68